createdAt,value
2019-05-22T00:02:34.987Z,100286.92
2019-05-22T00:05:14.427Z,100292.45
2019-05-22T00:07:47.898Z,100292.19
2019-05-22T00:10:23.658Z,100292.09
2019-05-22T00:12:56.935Z,100291.89
2019-05-22T00:15:30.102Z,100299.20
2019-05-22T00:18:03.875Z,100294.38
2019-05-22T00:20:36.424Z,100303.72
2019-05-22T00:23:10.392Z,100309.60
2019-05-22T00:25:43.618Z,100313.41
2019-05-22T00:28:16.886Z,100319.03
2019-05-22T00:30:49.828Z,100311.07
2019-05-22T00:33:22.285Z,100323.70
2019-05-22T00:35:56.090Z,100319.29
2019-05-22T00:38:28.791Z,100325.66
2019-05-22T00:41:07.786Z,100337.33
2019-05-22T00:43:42.131Z,100324.06
2019-05-22T00:46:19.481Z,100325.52
2019-05-22T00:48:52.193Z,100321.01
2019-05-22T00:51:40.923Z,100328.05
2019-05-22T00:54:21.302Z,100328.63
2019-05-22T00:57:03.212Z,100330.38
2019-05-22T00:59:37.440Z,100328.89
2019-05-22T01:02:10.280Z,100329.37
2019-05-22T01:04:42.298Z,100329.70
2019-05-22T01:07:21.367Z,100331.70
2019-05-22T01:09:56.645Z,100332.02
2019-05-22T01:12:29.588Z,100337.77
2019-05-22T01:15:06.336Z,100360.48
2019-05-22T01:17:38.157Z,100339.38
2019-05-22T01:20:12.943Z,100338.21
2019-05-22T01:22:47.433Z,100338.66
2019-05-22T01:25:22.009Z,100333.56
2019-05-22T01:27:53.464Z,100334.34
2019-05-22T01:30:31.458Z,100335.95
2019-05-22T01:33:07.307Z,100342.15
2019-05-22T01:35:40.266Z,100333.34
2019-05-22T01:38:13.930Z,100331.09
2019-05-22T01:40:53.551Z,100343.59
2019-05-22T01:43:26.130Z,100353.13
2019-05-22T01:46:00.854Z,100347.05
2019-05-22T01:48:36.838Z,100355.89
2019-05-22T01:51:10.669Z,100357.80
2019-05-22T01:53:43.888Z,100355.63
2019-05-22T01:56:16.989Z,100354.03
2019-05-22T01:58:49.862Z,100358.10
2019-05-22T02:01:24.339Z,100359.95
2019-05-22T02:03:56.741Z,100364.02
2019-05-22T02:06:28.334Z,100366.72
2019-05-22T02:09:16.580Z,100370.55
2019-05-22T02:11:52.183Z,100363.72
2019-05-22T02:14:25.465Z,100372.30
2019-05-22T02:16:58.181Z,100375.89
2019-05-22T02:19:29.558Z,100381.12
2019-05-22T02:22:02.146Z,100378.94
2019-05-22T02:24:34.445Z,100381.05
2019-05-22T02:27:06.100Z,100384.27
2019-05-22T02:29:38.015Z,100386.25
2019-05-22T02:32:11.486Z,100383.52
2019-05-22T02:34:44.244Z,100384.36
2019-05-22T02:37:17.202Z,100385.63
2019-05-22T02:39:50.314Z,100386.73
2019-05-22T02:42:26.827Z,100397.04
2019-05-22T02:44:58.701Z,100390.71
2019-05-22T02:47:30.535Z,100391.47
2019-05-22T02:50:01.731Z,100391.44
2019-05-22T02:52:35.454Z,100388.63
2019-05-22T02:55:06.789Z,100399.23
2019-05-22T02:57:37.817Z,100397.61
2019-05-22T03:00:09.269Z,100390.63
2019-05-22T03:02:50.143Z,100398.55
2019-05-22T03:05:23.071Z,100394.35
2019-05-22T03:07:54.718Z,100401.73
2019-05-22T03:10:26.601Z,100416.63
2019-05-22T03:12:58.491Z,100407.56
2019-05-22T03:15:29.586Z,100403.88
2019-05-22T03:18:05.207Z,100404.24
2019-05-22T03:20:37.730Z,100411.31
2019-05-22T03:23:40.470Z,100407.34
2019-05-22T03:26:13.303Z,100409.70
2019-05-22T03:28:45.954Z,100423.59
2019-05-22T03:31:18.746Z,100416.47
2019-05-22T03:33:49.772Z,100414.10
2019-05-22T03:36:22.369Z,100425.61
2019-05-22T03:38:53.732Z,100421.91
2019-05-22T03:41:24.975Z,100428.03
2019-05-22T03:43:58.552Z,100433.66
2019-05-22T03:46:40.088Z,100432.36
2019-05-22T03:49:29.285Z,100439.47
2019-05-22T03:51:49.241Z,100434.25
2019-05-22T03:54:21.837Z,100442.33
2019-05-22T03:56:54.399Z,100444.56
2019-05-22T03:59:25.848Z,100437.33
2019-05-22T04:01:57.287Z,100443.47
2019-05-22T04:04:36.790Z,100453.90
2019-05-22T04:07:10.980Z,100454.17
2019-05-22T04:09:45.075Z,100451.41
2019-05-22T04:12:16.922Z,100462.12
2019-05-22T04:14:48.403Z,100458.03
2019-05-22T04:17:21.464Z,100463.73
2019-05-22T04:19:52.755Z,100466.73
2019-05-22T04:22:24.489Z,100466.73
2019-05-22T04:24:55.977Z,100469.47
2019-05-22T04:27:27.819Z,100469.11
2019-05-22T04:29:59.116Z,100468.83
2019-05-22T04:32:33.121Z,100469.67
2019-05-22T04:35:07.082Z,100474.48
2019-05-22T04:37:38.497Z,100482.27
2019-05-22T04:40:48.792Z,100487.00
2019-05-22T04:43:23.938Z,100488.13
2019-05-22T04:45:56.896Z,100482.55
2019-05-22T04:48:29.341Z,100480.47
2019-05-22T04:51:19.896Z,100486.44
2019-05-22T04:53:51.230Z,100488.36
2019-05-22T04:56:23.715Z,100484.55
2019-05-22T04:58:55.294Z,100483.67
2019-05-22T05:01:27.533Z,100487.00
2019-05-22T05:03:58.913Z,100483.80
2019-05-22T05:06:33.114Z,100487.17
2019-05-22T05:09:10.113Z,100498.36
2019-05-22T05:11:41.348Z,100501.73
2019-05-22T05:14:12.434Z,100501.94
2019-05-22T05:16:43.620Z,100504.49
2019-05-22T05:19:14.715Z,100503.08
2019-05-22T05:21:46.795Z,100495.12
2019-05-22T05:24:17.935Z,100503.45
2019-05-22T05:26:50.441Z,100503.34
2019-05-22T05:29:31.079Z,100504.78
2019-05-22T05:32:03.290Z,100504.78
2019-05-22T05:34:59.798Z,100517.44
2019-05-22T05:37:31.562Z,100519.52
2019-05-22T05:40:28.975Z,100521.44
2019-05-22T05:43:00.962Z,100521.44
2019-05-22T05:45:33.705Z,100531.35
2019-05-22T05:48:07.282Z,100540.91
2019-05-22T05:50:40.684Z,100535.53
2019-05-22T05:53:16.749Z,100535.53
2019-05-22T05:56:13.517Z,100546.02
2019-05-22T05:58:45.637Z,100546.69
2019-05-22T06:01:28.131Z,100533.92
2019-05-22T06:03:59.732Z,100542.59
2019-05-22T06:07:15.760Z,100543.76
2019-05-22T06:09:55.883Z,100543.08
2019-05-22T06:12:27.206Z,100551.03
2019-05-22T06:14:58.717Z,100554.08
2019-05-22T06:18:08.615Z,100552.06
2019-05-22T06:20:41.247Z,100552.55
2019-05-22T06:23:52.272Z,100555.00
2019-05-22T06:27:11.216Z,100564.36
2019-05-22T06:30:13.630Z,100555.55
2019-05-22T06:33:21.521Z,100558.50
2019-05-22T06:35:52.816Z,100558.50
2019-05-22T06:38:47.113Z,100561.63
2019-05-22T06:41:18.907Z,100572.22
2019-05-22T06:44:28.773Z,100566.64
2019-05-22T06:46:59.961Z,100573.91
2019-05-22T06:49:44.591Z,100573.91
2019-05-22T06:52:15.943Z,100571.09
2019-05-22T06:54:48.631Z,100565.40
2019-05-22T06:57:26.701Z,100558.27
2019-05-22T07:00:14.080Z,100565.67
2019-05-22T07:02:35.943Z,100571.53
2019-05-22T07:05:07.497Z,100570.40
2019-05-22T07:07:39.335Z,100565.67
2019-05-22T07:10:15.151Z,100573.55
2019-05-22T07:12:50.506Z,100586.52
2019-05-22T07:15:28.844Z,100590.78
2019-05-22T07:18:01.331Z,100606.03
2019-05-22T07:20:35.603Z,100607.80
2019-05-22T07:23:07.917Z,100606.02
2019-05-22T07:25:42.039Z,100614.52
2019-05-22T07:28:14.129Z,100613.48
2019-05-22T07:30:45.921Z,100614.62
2019-05-22T07:33:17.984Z,100618.80
2019-05-22T07:36:08.677Z,100623.23
2019-05-22T07:38:22.715Z,100609.21
2019-05-22T07:40:53.973Z,100613.92
2019-05-22T07:43:25.283Z,100617.80
2019-05-22T07:45:57.763Z,100617.28
2019-05-22T07:48:29.592Z,100620.36
2019-05-22T07:51:01.479Z,100624.25
2019-05-22T07:53:32.545Z,100625.71
2019-05-22T07:56:08.649Z,100648.61
2019-05-22T07:58:40.786Z,100627.88
2019-05-22T08:01:12.134Z,100633.75
2019-05-22T08:03:44.903Z,100638.77
2019-05-22T08:06:16.639Z,100645.59
2019-05-22T08:08:49.215Z,100642.94
2019-05-22T08:11:20.917Z,100649.56
2019-05-22T08:13:52.274Z,100655.03
2019-05-22T08:16:24.120Z,100659.48
2019-05-22T08:18:55.464Z,100669.62
2019-05-22T08:21:27.053Z,100660.79
2019-05-22T08:23:58.601Z,100663.07
2019-05-22T08:26:30.960Z,100659.12
2019-05-22T08:29:03.262Z,100662.05
2019-05-22T08:31:34.804Z,100662.70
2019-05-22T08:34:06.445Z,100670.86
2019-05-22T08:36:38.694Z,100668.01
2019-05-22T08:39:11.424Z,100673.59
2019-05-22T08:41:43.575Z,100671.15
2019-05-22T08:44:17.537Z,100668.47
2019-05-22T08:46:48.620Z,100676.23
2019-05-22T08:49:21.600Z,100690.30
2019-05-22T08:51:52.922Z,100690.30
2019-05-22T08:54:24.275Z,100688.81
2019-05-22T08:56:56.324Z,100695.14
2019-05-22T08:59:27.346Z,100692.20
2019-05-22T09:01:58.691Z,100689.35
2019-05-22T09:04:29.963Z,100692.48
2019-05-22T09:07:01.344Z,100694.41
2019-05-22T09:09:32.332Z,100699.81
2019-05-22T09:12:04.986Z,100706.91
2019-05-22T09:14:36.042Z,100704.06
2019-05-22T09:17:07.586Z,100702.47
2019-05-22T09:19:38.618Z,100709.50
2019-05-22T09:22:09.774Z,100713.28
2019-05-22T09:24:43.241Z,100701.25
2019-05-22T09:27:15.003Z,100714.14
2019-05-22T09:29:46.379Z,100714.23
2019-05-22T09:32:18.732Z,100717.91
2019-05-22T09:34:50.586Z,100719.41
2019-05-22T09:37:22.406Z,100720.63
2019-05-22T09:39:53.675Z,100724.84
2019-05-22T09:42:26.602Z,100717.73
2019-05-22T09:44:57.795Z,100721.61
2019-05-22T09:47:29.196Z,100718.31
2019-05-22T09:50:00.904Z,100716.70
2019-05-22T09:52:35.918Z,100716.03
2019-05-22T09:55:08.465Z,100718.89
2019-05-22T09:57:39.719Z,100729.30
2019-05-22T10:00:13.213Z,100727.41
2019-05-22T10:02:44.389Z,100734.41
2019-05-22T10:05:17.455Z,100736.34
2019-05-22T10:08:00.531Z,100745.50
2019-05-22T10:10:22.804Z,100741.38
2019-05-22T10:12:54.585Z,100747.74
2019-05-22T10:15:26.426Z,100764.41
2019-05-22T10:17:57.748Z,100759.68
2019-05-22T10:20:29.561Z,100762.16
2019-05-22T10:23:14.703Z,100765.03
2019-05-22T10:25:34.194Z,100763.71
2019-05-22T10:28:07.177Z,100764.57
2019-05-22T10:30:38.663Z,100769.02
2019-05-22T10:33:09.917Z,100765.34
2019-05-22T10:35:41.061Z,100770.62
2019-05-22T10:38:12.330Z,100772.00
2019-05-22T10:40:43.579Z,100772.90
2019-05-22T10:43:14.571Z,100770.91
2019-05-22T10:45:45.611Z,100774.41
2019-05-22T10:48:17.026Z,100774.25
2019-05-22T10:50:48.198Z,100777.80
2019-05-22T10:53:32.820Z,100774.48
2019-05-22T10:55:52.957Z,100772.55
2019-05-22T10:58:23.972Z,100779.84
2019-05-22T11:00:55.129Z,100783.14
2019-05-22T11:03:26.603Z,100773.79
2019-05-22T11:06:07.300Z,100780.05
2019-05-22T11:08:34.337Z,100780.74
2019-05-22T11:11:04.687Z,100778.38
2019-05-22T11:13:36.892Z,100768.89
2019-05-22T11:16:08.919Z,100783.09
2019-05-22T11:18:40.325Z,100788.77
2019-05-22T11:21:12.454Z,100795.07
2019-05-22T11:23:51.951Z,100796.23
2019-05-22T11:26:16.901Z,100790.55
2019-05-22T11:28:48.614Z,100794.41
2019-05-22T11:31:20.101Z,100799.39
2019-05-22T11:33:51.171Z,100794.47
2019-05-22T11:36:24.099Z,100794.42
2019-05-22T11:38:55.499Z,100794.42
2019-05-22T11:41:27.006Z,100800.59
2019-05-22T11:43:58.123Z,100810.11
2019-05-22T11:46:29.542Z,100798.81
2019-05-22T11:49:01.731Z,100803.36
2019-05-22T11:51:32.798Z,100807.31
2019-05-22T11:54:09.389Z,100800.33
2019-05-22T11:56:37.908Z,100811.16
2019-05-22T11:59:11.288Z,100808.81
2019-05-22T12:01:42.722Z,100811.88
2019-05-22T12:04:14.060Z,100805.59
2019-05-22T12:06:45.254Z,100818.97
2019-05-22T12:09:16.503Z,100820.94
2019-05-22T12:11:48.254Z,100817.97
2019-05-22T12:14:19.786Z,100810.27
2019-05-22T12:16:53.154Z,100804.99
2019-05-22T12:19:24.508Z,100805.03
2019-05-22T12:21:55.843Z,100802.98
2019-05-22T12:24:30.270Z,100805.07
2019-05-22T12:26:59.752Z,100804.00
2019-05-22T12:29:31.215Z,100806.53
2019-05-22T12:32:02.328Z,100802.34
2019-05-22T12:34:33.886Z,100799.77
2019-05-22T12:37:05.510Z,100802.34
2019-05-22T12:39:38.986Z,100806.48
2019-05-22T12:42:10.759Z,100804.22
2019-05-22T12:44:42.118Z,100798.48
2019-05-22T12:47:14.118Z,100798.09
2019-05-22T12:49:45.399Z,100806.06
2019-05-22T12:52:16.799Z,100809.38
2019-05-22T12:54:52.416Z,100814.06
2019-05-22T12:57:20.919Z,100821.27
2019-05-22T12:59:53.800Z,100827.60
2019-05-22T13:02:25.361Z,100815.44
2019-05-22T13:04:56.966Z,100816.51
2019-05-22T13:07:28.403Z,100816.03
2019-05-22T13:09:59.572Z,100820.70
2019-05-22T13:12:31.443Z,100818.69
2019-05-22T13:15:09.891Z,100816.03
2019-05-22T13:17:36.243Z,100816.73
2019-05-22T13:20:08.311Z,100813.25
2019-05-22T13:22:43.758Z,100820.44
2019-05-22T13:25:17.196Z,100816.00
2019-05-22T13:27:48.924Z,100821.62
2019-05-22T13:30:23.151Z,100824.41
2019-05-22T13:32:57.047Z,100820.86
2019-05-22T13:35:29.583Z,100817.84
2019-05-22T13:38:02.766Z,100820.41
2019-05-22T13:40:34.601Z,100818.63
2019-05-22T13:43:06.032Z,100811.41
2019-05-22T13:45:37.668Z,100807.13
2019-05-22T13:48:09.137Z,100819.03
2019-05-22T13:50:40.555Z,100816.02
2019-05-22T13:53:13.292Z,100820.61
2019-05-22T13:55:45.530Z,100823.23
2019-05-22T13:58:17.161Z,100827.72
2019-05-22T14:00:49.164Z,100833.75
2019-05-22T14:03:20.818Z,100832.20
2019-05-22T14:05:52.333Z,100838.28
2019-05-22T14:08:23.831Z,100841.42
2019-05-22T14:10:56.302Z,100837.48
2019-05-22T14:13:27.835Z,100841.55
2019-05-22T14:15:59.187Z,100845.77
2019-05-22T14:18:31.306Z,100843.98
2019-05-22T14:21:02.616Z,100849.38
2019-05-22T14:23:34.057Z,100845.84
2019-05-22T14:26:05.665Z,100850.37
2019-05-22T14:28:37.848Z,100846.97
2019-05-22T14:31:08.977Z,100854.73
2019-05-22T14:33:40.756Z,100854.96
2019-05-22T14:36:12.583Z,100841.82
2019-05-22T14:38:43.938Z,100844.32
2019-05-22T14:41:15.451Z,100837.05
2019-05-22T14:43:46.570Z,100830.25
2019-05-22T14:46:17.762Z,100840.59
2019-05-22T14:48:49.096Z,100844.11
2019-05-22T14:51:21.370Z,100843.58
2019-05-22T14:53:54.546Z,100852.48
2019-05-22T14:56:26.305Z,100843.48
2019-05-22T14:58:57.404Z,100847.05
2019-05-22T15:04:06.951Z,100859.81
2019-05-22T15:06:38.566Z,100849.42
2019-05-22T15:09:10.456Z,100851.22
2019-05-22T15:11:41.711Z,100856.29
2019-05-22T15:14:12.966Z,100851.13
2019-05-22T15:16:44.681Z,100852.30
2019-05-22T15:19:15.781Z,100861.78
2019-05-22T15:21:46.834Z,100849.63
2019-05-22T15:24:18.384Z,100850.08
2019-05-22T15:26:49.665Z,100842.80
2019-05-22T15:29:21.101Z,100844.16
2019-05-22T15:31:52.207Z,100838.80
2019-05-22T15:34:24.081Z,100841.02
2019-05-22T15:36:55.356Z,100831.69
2019-05-22T15:39:28.768Z,100836.33
2019-05-22T15:42:00.425Z,100834.03
2019-05-22T15:44:32.161Z,100844.13
2019-05-22T15:47:03.512Z,100835.98
2019-05-22T15:49:35.087Z,100833.03
2019-05-22T15:52:09.287Z,100832.47
2019-05-22T15:54:40.373Z,100839.08
2019-05-22T15:57:12.803Z,100829.68
2019-05-22T15:59:45.103Z,100840.39
2019-05-22T16:02:20.979Z,100836.13
2019-05-22T16:04:51.962Z,100840.22
2019-05-22T16:07:23.280Z,100832.31
2019-05-22T16:09:54.364Z,100837.50
2019-05-22T16:12:26.065Z,100842.30
2019-05-22T16:14:59.133Z,100837.01
2019-05-22T16:17:46.856Z,100835.88
2019-05-22T16:20:21.246Z,100833.98
2019-05-22T16:22:54.759Z,100828.05
2019-05-22T16:25:26.339Z,100819.52
2019-05-22T16:27:57.795Z,100836.72
2019-05-22T16:30:30.260Z,100832.41
2019-05-22T16:33:03.709Z,100837.73
2019-05-22T16:35:34.996Z,100832.23
2019-05-22T16:38:06.097Z,100836.99
2019-05-22T16:40:37.415Z,100839.12
2019-05-22T16:43:09.534Z,100832.77
2019-05-22T16:45:40.821Z,100828.70
2019-05-22T16:48:27.621Z,100826.24
2019-05-22T16:50:45.151Z,100830.55
2019-05-22T16:53:17.836Z,100832.25
2019-05-22T16:55:50.248Z,100829.47
2019-05-22T16:58:21.651Z,100838.45
2019-05-22T17:00:56.714Z,100829.65
2019-05-22T17:03:29.613Z,100835.97
2019-05-22T17:06:00.879Z,100837.54
2019-05-22T17:08:32.269Z,100846.08
2019-05-22T17:11:03.734Z,100837.38
2019-05-22T17:13:34.909Z,100838.98
2019-05-22T17:16:06.864Z,100842.30
2019-05-22T17:18:47.439Z,100840.30
2019-05-22T17:21:11.516Z,100841.40
2019-05-22T17:23:43.434Z,100842.81
2019-05-22T17:26:14.846Z,100840.95
2019-05-22T17:28:46.011Z,100842.28
2019-05-22T17:31:18.246Z,100832.75
2019-05-22T17:33:49.263Z,100841.53
2019-05-22T17:36:21.442Z,100843.84
2019-05-22T17:38:52.814Z,100843.58
2019-05-22T17:41:25.698Z,100840.48
2019-05-22T17:43:57.479Z,100840.73
2019-05-22T17:46:29.304Z,100850.50
2019-05-22T17:49:00.873Z,100846.13
2019-05-22T17:51:32.437Z,100839.28
2019-05-22T17:54:04.583Z,100851.29
2019-05-22T17:56:36.192Z,100848.64
2019-05-22T17:59:07.240Z,100845.21
2019-05-22T18:01:38.865Z,100850.74
2019-05-22T18:04:10.217Z,100843.41
2019-05-22T18:06:41.647Z,100848.91
2019-05-22T18:09:13.039Z,100845.39
2019-05-22T18:11:44.532Z,100849.91
2019-05-22T18:14:16.131Z,100851.41
2019-05-22T18:16:47.522Z,100846.03
2019-05-22T18:19:19.077Z,100842.00
2019-05-22T18:21:50.424Z,100843.67
2019-05-22T18:24:22.447Z,100847.34
2019-05-22T18:26:54.430Z,100850.21
2019-05-22T18:29:26.490Z,100846.51
2019-05-22T18:32:02.311Z,100853.30
2019-05-22T18:34:33.409Z,100855.70
2019-05-22T18:37:04.931Z,100846.28
2019-05-22T18:39:36.528Z,100847.29
2019-05-22T18:42:08.006Z,100849.88
2019-05-22T18:44:39.138Z,100857.52
2019-05-22T18:47:12.200Z,100856.38
2019-05-22T18:49:43.256Z,100861.53
2019-05-22T18:52:15.072Z,100855.01
2019-05-22T18:54:46.253Z,100866.42
2019-05-22T18:57:17.535Z,100865.05
2019-05-22T18:59:48.780Z,100868.75
2019-05-22T19:02:20.974Z,100872.02
2019-05-22T19:04:52.591Z,100869.29
2019-05-22T19:07:30.740Z,100875.19
2019-05-22T19:10:02.800Z,100872.17
2019-05-22T19:12:35.272Z,100873.45
2019-05-22T19:15:06.577Z,100879.48
2019-05-22T19:17:38.135Z,100875.93
2019-05-22T19:20:10.641Z,100881.22
2019-05-22T19:22:58.047Z,100883.86
2019-05-22T19:25:15.814Z,100883.63
2019-05-22T19:27:47.013Z,100889.52
2019-05-22T19:30:20.743Z,100893.36
2019-05-22T19:32:52.609Z,100895.36
2019-05-22T19:35:23.730Z,100893.81
2019-05-22T19:37:54.959Z,100898.38
2019-05-22T19:40:26.227Z,100899.16
2019-05-22T19:42:58.717Z,100900.84
2019-05-22T19:45:31.035Z,100904.55
2019-05-22T19:48:02.857Z,100902.05
2019-05-22T19:50:34.636Z,100904.03
2019-05-22T19:53:18.131Z,100905.01
2019-05-22T19:55:38.620Z,100911.09
2019-05-22T19:58:10.730Z,100918.02
2019-05-22T20:00:43.159Z,100918.02
2019-05-22T20:03:16.344Z,100927.81
2019-05-22T20:05:47.533Z,100924.95
2019-05-22T20:08:18.994Z,100924.59
2019-05-22T20:10:51.621Z,100921.73
2019-05-22T20:13:23.619Z,100923.83
2019-05-22T20:15:55.372Z,100924.78
2019-05-22T20:18:26.954Z,100922.60
2019-05-22T20:20:58.589Z,100927.61
2019-05-22T20:23:35.745Z,100927.91
2019-05-22T20:26:03.375Z,100930.58
2019-05-22T20:28:35.725Z,100927.04
2019-05-22T20:31:07.550Z,100928.75
2019-05-22T20:33:38.851Z,100931.87
2019-05-22T20:36:10.774Z,100932.16
2019-05-22T20:38:41.987Z,100932.06
2019-05-22T20:41:13.869Z,100934.17
2019-05-22T20:43:45.892Z,100930.75
2019-05-22T20:46:18.677Z,100942.66
2019-05-22T20:48:50.622Z,100937.94
2019-05-22T20:51:21.796Z,100935.23
2019-05-22T20:53:54.782Z,100935.98
2019-05-22T20:56:27.912Z,100932.96
2019-05-22T20:58:59.653Z,100935.92
2019-05-22T21:01:33.249Z,100930.66
2019-05-22T21:04:06.335Z,100931.36
2019-05-22T21:06:41.518Z,100939.01
2019-05-22T21:09:13.804Z,100936.01
2019-05-22T21:11:45.161Z,100940.34
2019-05-22T21:14:17.135Z,100941.16
2019-05-22T21:16:48.261Z,100941.59
2019-05-22T21:19:23.587Z,100946.09
2019-05-22T21:21:56.550Z,100945.78
2019-05-22T21:24:27.866Z,100946.38
2019-05-22T21:26:59.045Z,100939.07
2019-05-22T21:29:31.074Z,100949.02
2019-05-22T21:32:02.994Z,100952.62
2019-05-22T21:34:34.496Z,100955.39
2019-05-22T21:37:06.528Z,100961.11
2019-05-22T21:39:38.542Z,100954.34
2019-05-22T21:42:10.301Z,100966.25
2019-05-22T21:44:43.069Z,100957.81
2019-05-22T21:47:14.854Z,100955.82
2019-05-22T21:49:46.954Z,100957.34
2019-05-22T21:52:18.618Z,100956.13
2019-05-22T21:54:49.939Z,100951.02
2019-05-22T21:57:20.989Z,100951.41
2019-05-22T21:59:52.589Z,100956.13
2019-05-22T22:02:32.827Z,100958.91
2019-05-22T22:05:05.015Z,100959.84
2019-05-22T22:07:37.066Z,100963.20
2019-05-22T22:10:08.130Z,100956.81
2019-05-22T22:12:39.833Z,100965.54
2019-05-22T22:15:12.368Z,100962.14
2019-05-22T22:17:44.446Z,100968.68
2019-05-22T22:20:16.772Z,100968.68
2019-05-22T22:22:48.986Z,100969.77
2019-05-22T22:25:21.480Z,100974.66
2019-05-22T22:27:52.881Z,100978.02
2019-05-22T22:30:29.930Z,100978.50
2019-05-22T22:33:04.281Z,100977.07
2019-05-22T22:35:35.774Z,100984.91
2019-05-22T22:38:09.178Z,100980.33
2019-05-22T22:40:41.634Z,100990.17
2019-05-22T22:43:14.136Z,100987.97
2019-05-22T22:46:06.060Z,100992.79
2019-05-22T22:48:39.588Z,100998.95
2019-05-22T22:51:11.874Z,100987.87
2019-05-22T22:53:43.743Z,100990.30
2019-05-22T22:56:15.095Z,100989.67
2019-05-22T22:58:46.237Z,100986.46
2019-05-22T23:01:23.167Z,100982.31
2019-05-22T23:03:56.618Z,100981.88
2019-05-22T23:06:28.839Z,100983.52
2019-05-22T23:09:00.792Z,100984.36
2019-05-22T23:11:34.196Z,100986.05
2019-05-22T23:14:06.068Z,100987.98
2019-05-22T23:16:37.359Z,100989.79
2019-05-22T23:19:44.368Z,100991.94
2019-05-22T23:22:17.668Z,100987.96
2019-05-22T23:24:51.967Z,100996.45
2019-05-22T23:27:25.301Z,100999.81
2019-05-22T23:29:57.664Z,101001.89
2019-05-22T23:32:31.096Z,100998.02
2019-05-22T23:35:02.621Z,101002.48
2019-05-22T23:37:35.303Z,100997.85
2019-05-22T23:40:08.250Z,100996.69
2019-05-22T23:42:41.548Z,100999.35
2019-05-22T23:45:15.243Z,100994.89
2019-05-22T23:48:03.958Z,100997.61
2019-05-22T23:50:38.114Z,100997.41
2019-05-22T23:53:12.586Z,100995.77
2019-05-22T23:55:44.162Z,100995.38
2019-05-22T23:58:16.900Z,100989.47
